sensor_id;sensor_type;location;lat;lon;timestamp;temperature;humidity
32097;DHT22;18610;49.916;8.284;2022-09-23T00:00:49;8.70;99.90
32097;DHT22;18610;49.916;8.284;2022-09-23T00:03:26;8.60;99.90
32097;DHT22;18610;49.916;8.284;2022-09-23T00:05:57;8.60;99.90
32097;DHT22;18610;49.916;8.284;2022-09-23T00:08:24;8.60;99.90
32097;DHT22;18610;49.916;8.284;2022-09-23T00:10:51;8.60;99.90
32097;DHT22;18610;49.916;8.284;2022-09-23T00:13:18;8.60;99.90
32097;DHT22;18610;49.916;8.284;2022-09-23T00:15:44;8.60;99.90
32097;DHT22;18610;49.916;8.284;2022-09-23T00:18:12;8.60;99.90
32097;DHT22;18610;49.916;8.284;2022-09-23T00:20:40;8.60;99.90
32097;DHT22;18610;49.916;8.284;2022-09-23T00:23:06;8.60;99.90
32097;DHT22;18610;49.916;8.284;2022-09-23T00:25:33;8.60;99.90
32097;DHT22;18610;49.916;8.284;2022-09-23T00:28:00;8.60;99.90
32097;DHT22;18610;49.916;8.284;2022-09-23T00:30:28;8.50;99.90
32097;DHT22;18610;49.916;8.284;2022-09-23T00:32:55;8.50;99.90
32097;DHT22;18610;49.916;8.284;2022-09-23T00:35:22;8.50;99.90
32097;DHT22;18610;49.916;8.284;2022-09-23T00:37:50;8.50;99.90
32097;DHT22;18610;49.916;8.284;2022-09-23T00:40:17;8.50;99.90
32097;DHT22;18610;49.916;8.284;2022-09-23T00:42:45;8.50;99.90
32097;DHT22;18610;49.916;8.284;2022-09-23T00:45:13;8.30;99.90
32097;DHT22;18610;49.916;8.284;2022-09-23T00:47:44;8.30;99.90
32097;DHT22;18610;49.916;8.284;2022-09-23T00:50:17;8.30;99.90
32097;DHT22;18610;49.916;8.284;2022-09-23T00:52:46;8.30;99.90
32097;DHT22;18610;49.916;8.284;2022-09-23T00:55:18;8.30;99.90
32097;DHT22;18610;49.916;8.284;2022-09-23T00:57:46;8.30;99.90
32097;DHT22;18610;49.916;8.284;2022-09-23T01:00:14;8.30;99.90
32097;DHT22;18610;49.916;8.284;2022-09-23T01:02:40;8.30;99.90
32097;DHT22;18610;49.916;8.284;2022-09-23T01:05:08;8.30;99.90
32097;DHT22;18610;49.916;8.284;2022-09-23T01:07:35;8.20;99.90
32097;DHT22;18610;49.916;8.284;2022-09-23T01:10:02;8.20;99.90
32097;DHT22;18610;49.916;8.284;2022-09-23T01:12:52;8.20;99.90
32097;DHT22;18610;49.916;8.284;2022-09-23T01:15:22;8.20;99.90
32097;DHT22;18610;49.916;8.284;2022-09-23T01:18:00;8.10;99.90
32097;DHT22;18610;49.916;8.284;2022-09-23T01:26:53;8.10;99.90
32097;DHT22;18610;49.916;8.284;2022-09-23T01:29:40;8.10;99.90
32097;DHT22;18610;49.916;8.284;2022-09-23T01:32:18;8.10;99.90
32097;DHT22;18610;49.916;8.284;2022-09-23T01:34:53;8.10;99.90
32097;DHT22;18610;49.916;8.284;2022-09-23T01:37:27;8.10;99.90
32097;DHT22;18610;49.916;8.284;2022-09-23T01:40:02;8.10;99.90
32097;DHT22;18610;49.916;8.284;2022-09-23T01:42:35;8.00;99.90
32097;DHT22;18610;49.916;8.284;2022-09-23T01:45:07;8.00;99.90
32097;DHT22;18610;49.916;8.284;2022-09-23T01:47:41;8.00;99.90
32097;DHT22;18610;49.916;8.284;2022-09-23T01:50:15;8.00;99.90
32097;DHT22;18610;49.916;8.284;2022-09-23T01:53:00;8.00;99.90
32097;DHT22;18610;49.916;8.284;2022-09-23T01:55:32;8.00;99.90
32097;DHT22;18610;49.916;8.284;2022-09-23T01:58:05;8.00;99.90
32097;DHT22;18610;49.916;8.284;2022-09-23T02:00:35;7.90;99.90
32097;DHT22;18610;49.916;8.284;2022-09-23T02:03:10;7.90;99.90
32097;DHT22;18610;49.916;8.284;2022-09-23T02:05:42;7.90;99.90
32097;DHT22;18610;49.916;8.284;2022-09-23T02:08:15;7.90;99.90
32097;DHT22;18610;49.916;8.284;2022-09-23T02:10:45;7.90;99.90
32097;DHT22;18610;49.916;8.284;2022-09-23T02:13:18;7.90;99.90
32097;DHT22;18610;49.916;8.284;2022-09-23T02:15:49;7.90;99.90
32097;DHT22;18610;49.916;8.284;2022-09-23T02:18:21;7.90;99.90
32097;DHT22;18610;49.916;8.284;2022-09-23T02:20:52;7.90;99.90
32097;DHT22;18610;49.916;8.284;2022-09-23T02:23:24;7.90;99.90
32097;DHT22;18610;49.916;8.284;2022-09-23T02:25:57;7.90;99.90
32097;DHT22;18610;49.916;8.284;2022-09-23T02:28:30;7.90;99.90
32097;DHT22;18610;49.916;8.284;2022-09-23T02:31:03;7.90;99.90
32097;DHT22;18610;49.916;8.284;2022-09-23T02:33:37;7.90;99.90
32097;DHT22;18610;49.916;8.284;2022-09-23T02:36:07;7.90;99.90
32097;DHT22;18610;49.916;8.284;2022-09-23T02:38:39;7.90;99.90
32097;DHT22;18610;49.916;8.284;2022-09-23T02:41:10;7.80;99.90
32097;DHT22;18610;49.916;8.284;2022-09-23T02:43:44;7.90;99.90
32097;DHT22;18610;49.916;8.284;2022-09-23T02:46:13;7.80;99.90
32097;DHT22;18610;49.916;8.284;2022-09-23T02:48:44;7.90;99.90
32097;DHT22;18610;49.916;8.284;2022-09-23T02:51:12;7.80;99.90
32097;DHT22;18610;49.916;8.284;2022-09-23T02:53:39;7.80;99.90
32097;DHT22;18610;49.916;8.284;2022-09-23T02:56:14;7.80;99.90
32097;DHT22;18610;49.916;8.284;2022-09-23T02:58:41;7.80;99.90
32097;DHT22;18610;49.916;8.284;2022-09-23T03:01:15;7.80;99.90
32097;DHT22;18610;49.916;8.284;2022-09-23T03:03:48;7.70;99.90
32097;DHT22;18610;49.916;8.284;2022-09-23T03:06:26;7.70;99.90
32097;DHT22;18610;49.916;8.284;2022-09-23T03:08:57;7.70;99.90
32097;DHT22;18610;49.916;8.284;2022-09-23T03:11:25;7.60;99.90
32097;DHT22;18610;49.916;8.284;2022-09-23T03:14:03;7.60;99.90
32097;DHT22;18610;49.916;8.284;2022-09-23T03:16:37;7.60;99.90
32097;DHT22;18610;49.916;8.284;2022-09-23T03:19:22;7.50;99.90
32097;DHT22;18610;49.916;8.284;2022-09-23T03:21:55;7.50;99.90
32097;DHT22;18610;49.916;8.284;2022-09-23T03:24:27;7.50;99.90
32097;DHT22;18610;49.916;8.284;2022-09-23T03:26:58;7.50;99.90
32097;DHT22;18610;49.916;8.284;2022-09-23T03:29:26;7.50;99.90
32097;DHT22;18610;49.916;8.284;2022-09-23T03:31:54;7.50;99.90
32097;DHT22;18610;49.916;8.284;2022-09-23T03:34:26;7.50;99.90
32097;DHT22;18610;49.916;8.284;2022-09-23T03:36:55;7.50;99.90
32097;DHT22;18610;49.916;8.284;2022-09-23T03:39:32;7.50;99.90
32097;DHT22;18610;49.916;8.284;2022-09-23T03:42:02;7.50;99.90
32097;DHT22;18610;49.916;8.284;2022-09-23T03:44:33;7.40;99.90
32097;DHT22;18610;49.916;8.284;2022-09-23T03:47:02;7.50;99.90
32097;DHT22;18610;49.916;8.284;2022-09-23T03:49:34;7.40;99.90
32097;DHT22;18610;49.916;8.284;2022-09-23T03:52:01;7.40;99.90
32097;DHT22;18610;49.916;8.284;2022-09-23T03:54:28;7.40;99.90
32097;DHT22;18610;49.916;8.284;2022-09-23T03:56:55;7.40;99.90
32097;DHT22;18610;49.916;8.284;2022-09-23T03:59:22;7.40;99.90
32097;DHT22;18610;49.916;8.284;2022-09-23T04:01:49;7.40;99.90
32097;DHT22;18610;49.916;8.284;2022-09-23T04:04:16;7.40;99.90
32097;DHT22;18610;49.916;8.284;2022-09-23T04:06:45;7.30;99.90
32097;DHT22;18610;49.916;8.284;2022-09-23T04:09:12;7.40;99.90
32097;DHT22;18610;49.916;8.284;2022-09-23T04:11:39;7.40;99.90
32097;DHT22;18610;49.916;8.284;2022-09-23T04:14:05;7.40;99.90
32097;DHT22;18610;49.916;8.284;2022-09-23T04:16:32;7.40;99.90
32097;DHT22;18610;49.916;8.284;2022-09-23T04:18:59;7.40;99.90
32097;DHT22;18610;49.916;8.284;2022-09-23T04:21:26;7.40;99.90
32097;DHT22;18610;49.916;8.284;2022-09-23T04:23:54;7.40;99.90
32097;DHT22;18610;49.916;8.284;2022-09-23T04:26:20;7.50;99.90
32097;DHT22;18610;49.916;8.284;2022-09-23T04:28:47;7.50;99.90
32097;DHT22;18610;49.916;8.284;2022-09-23T04:31:14;7.50;99.90
32097;DHT22;18610;49.916;8.284;2022-09-23T04:33:41;7.50;99.90
32097;DHT22;18610;49.916;8.284;2022-09-23T04:36:08;7.50;99.90
32097;DHT22;18610;49.916;8.284;2022-09-23T04:38:34;7.60;99.90
32097;DHT22;18610;49.916;8.284;2022-09-23T04:41:03;7.60;99.90
32097;DHT22;18610;49.916;8.284;2022-09-23T04:43:30;7.70;99.90
32097;DHT22;18610;49.916;8.284;2022-09-23T04:45:57;7.70;99.90
32097;DHT22;18610;49.916;8.284;2022-09-23T04:48:25;7.70;99.90
32097;DHT22;18610;49.916;8.284;2022-09-23T04:50:52;7.70;99.90
32097;DHT22;18610;49.916;8.284;2022-09-23T04:53:19;7.80;99.90
32097;DHT22;18610;49.916;8.284;2022-09-23T04:55:47;7.70;99.90
32097;DHT22;18610;49.916;8.284;2022-09-23T04:58:15;7.70;99.90
32097;DHT22;18610;49.916;8.284;2022-09-23T05:00:42;7.70;99.90
32097;DHT22;18610;49.916;8.284;2022-09-23T05:03:09;7.70;99.90
32097;DHT22;18610;49.916;8.284;2022-09-23T05:05:38;7.70;99.90
32097;DHT22;18610;49.916;8.284;2022-09-23T05:08:04;7.70;99.90
32097;DHT22;18610;49.916;8.284;2022-09-23T05:10:32;7.60;99.90
32097;DHT22;18610;49.916;8.284;2022-09-23T05:12:58;7.60;99.90
32097;DHT22;18610;49.916;8.284;2022-09-23T05:15:26;7.60;99.90
32097;DHT22;18610;49.916;8.284;2022-09-23T05:17:56;7.60;99.90
32097;DHT22;18610;49.916;8.284;2022-09-23T05:20:22;7.60;99.90
32097;DHT22;18610;49.916;8.284;2022-09-23T05:22:49;7.50;99.90
32097;DHT22;18610;49.916;8.284;2022-09-23T05:25:17;7.50;99.90
32097;DHT22;18610;49.916;8.284;2022-09-23T05:27:43;7.60;99.90
32097;DHT22;18610;49.916;8.284;2022-09-23T05:30:10;7.50;99.90
32097;DHT22;18610;49.916;8.284;2022-09-23T05:32:38;7.50;99.90
32097;DHT22;18610;49.916;8.284;2022-09-23T05:35:06;7.50;99.90
32097;DHT22;18610;49.916;8.284;2022-09-23T05:37:33;7.50;99.90
32097;DHT22;18610;49.916;8.284;2022-09-23T05:40:00;7.50;99.90
32097;DHT22;18610;49.916;8.284;2022-09-23T05:42:27;7.60;99.90
32097;DHT22;18610;49.916;8.284;2022-09-23T05:44:53;7.70;99.90
32097;DHT22;18610;49.916;8.284;2022-09-23T05:47:20;7.70;99.90
32097;DHT22;18610;49.916;8.284;2022-09-23T05:49:48;7.80;99.90
32097;DHT22;18610;49.916;8.284;2022-09-23T05:52:15;7.80;99.90
32097;DHT22;18610;49.916;8.284;2022-09-23T05:54:42;7.90;99.90
32097;DHT22;18610;49.916;8.284;2022-09-23T05:57:09;8.00;99.90
32097;DHT22;18610;49.916;8.284;2022-09-23T05:59:36;8.00;99.90
32097;DHT22;18610;49.916;8.284;2022-09-23T06:02:03;8.10;99.90
32097;DHT22;18610;49.916;8.284;2022-09-23T06:04:30;8.20;99.90
32097;DHT22;18610;49.916;8.284;2022-09-23T06:06:58;8.30;99.90
32097;DHT22;18610;49.916;8.284;2022-09-23T06:09:25;8.40;99.90
32097;DHT22;18610;49.916;8.284;2022-09-23T06:11:52;8.50;99.90
32097;DHT22;18610;49.916;8.284;2022-09-23T06:14:18;8.60;99.90
32097;DHT22;18610;49.916;8.284;2022-09-23T06:16:45;8.70;99.90
32097;DHT22;18610;49.916;8.284;2022-09-23T06:19:12;8.80;99.90
32097;DHT22;18610;49.916;8.284;2022-09-23T06:21:39;8.80;99.90
32097;DHT22;18610;49.916;8.284;2022-09-23T06:24:08;8.80;99.90
32097;DHT22;18610;49.916;8.284;2022-09-23T06:26:35;8.90;99.90
32097;DHT22;18610;49.916;8.284;2022-09-23T06:29:07;8.80;99.90
32097;DHT22;18610;49.916;8.284;2022-09-23T06:31:34;8.90;99.90
32097;DHT22;18610;49.916;8.284;2022-09-23T06:34:01;8.90;99.90
32097;DHT22;18610;49.916;8.284;2022-09-23T06:36:28;9.00;99.90
32097;DHT22;18610;49.916;8.284;2022-09-23T06:38:54;9.00;99.90
32097;DHT22;18610;49.916;8.284;2022-09-23T06:41:23;9.00;99.90
32097;DHT22;18610;49.916;8.284;2022-09-23T06:43:49;9.10;99.90
32097;DHT22;18610;49.916;8.284;2022-09-23T06:46:16;9.10;99.90
32097;DHT22;18610;49.916;8.284;2022-09-23T06:48:43;9.10;99.90
32097;DHT22;18610;49.916;8.284;2022-09-23T06:51:11;9.20;99.90
32097;DHT22;18610;49.916;8.284;2022-09-23T06:53:44;9.30;99.90
32097;DHT22;18610;49.916;8.284;2022-09-23T06:56:12;9.40;99.90
32097;DHT22;18610;49.916;8.284;2022-09-23T06:58:40;9.50;99.90
32097;DHT22;18610;49.916;8.284;2022-09-23T07:01:08;9.60;99.90
32097;DHT22;18610;49.916;8.284;2022-09-23T07:03:36;9.70;99.90
32097;DHT22;18610;49.916;8.284;2022-09-23T07:06:06;9.70;99.90
32097;DHT22;18610;49.916;8.284;2022-09-23T07:08:33;9.80;99.90
32097;DHT22;18610;49.916;8.284;2022-09-23T07:11:02;10.00;99.90
32097;DHT22;18610;49.916;8.284;2022-09-23T07:13:30;10.10;99.90
32097;DHT22;18610;49.916;8.284;2022-09-23T07:15:59;10.20;99.90
32097;DHT22;18610;49.916;8.284;2022-09-23T07:18:29;10.30;99.90
32097;DHT22;18610;49.916;8.284;2022-09-23T07:21:04;10.40;99.90
32097;DHT22;18610;49.916;8.284;2022-09-23T07:23:31;10.50;99.90
32097;DHT22;18610;49.916;8.284;2022-09-23T07:25:58;10.60;99.90
32097;DHT22;18610;49.916;8.284;2022-09-23T07:28:25;10.70;99.90
32097;DHT22;18610;49.916;8.284;2022-09-23T07:30:54;10.80;99.90
32097;DHT22;18610;49.916;8.284;2022-09-23T07:33:22;10.90;99.90
32097;DHT22;18610;49.916;8.284;2022-09-23T07:35:49;11.00;99.90
32097;DHT22;18610;49.916;8.284;2022-09-23T07:38:15;11.10;99.90
32097;DHT22;18610;49.916;8.284;2022-09-23T07:40:42;11.10;99.90
32097;DHT22;18610;49.916;8.284;2022-09-23T07:43:09;11.20;99.90
32097;DHT22;18610;49.916;8.284;2022-09-23T07:45:37;11.30;99.90
32097;DHT22;18610;49.916;8.284;2022-09-23T07:48:08;11.50;99.90
32097;DHT22;18610;49.916;8.284;2022-09-23T07:50:38;11.60;99.90
32097;DHT22;18610;49.916;8.284;2022-09-23T07:53:04;11.90;99.90
32097;DHT22;18610;49.916;8.284;2022-09-23T07:55:31;12.10;99.90
32097;DHT22;18610;49.916;8.284;2022-09-23T07:57:59;12.30;99.90
32097;DHT22;18610;49.916;8.284;2022-09-23T08:00:26;12.60;99.90
32097;DHT22;18610;49.916;8.284;2022-09-23T08:02:53;12.80;99.90
32097;DHT22;18610;49.916;8.284;2022-09-23T08:05:19;13.10;99.90
32097;DHT22;18610;49.916;8.284;2022-09-23T08:07:48;13.40;99.90
32097;DHT22;18610;49.916;8.284;2022-09-23T08:10:15;13.70;99.90
32097;DHT22;18610;49.916;8.284;2022-09-23T08:12:43;14.00;99.90
32097;DHT22;18610;49.916;8.284;2022-09-23T08:15:11;14.30;99.90
32097;DHT22;18610;49.916;8.284;2022-09-23T08:17:37;14.50;99.90
32097;DHT22;18610;49.916;8.284;2022-09-23T08:20:05;14.80;99.90
32097;DHT22;18610;49.916;8.284;2022-09-23T08:22:32;14.90;99.90
32097;DHT22;18610;49.916;8.284;2022-09-23T08:25:00;15.20;99.90
32097;DHT22;18610;49.916;8.284;2022-09-23T08:27:27;15.40;99.90
32097;DHT22;18610;49.916;8.284;2022-09-23T08:29:54;15.50;99.90
32097;DHT22;18610;49.916;8.284;2022-09-23T08:32:20;15.80;99.90
32097;DHT22;18610;49.916;8.284;2022-09-23T08:34:47;16.00;99.90
32097;DHT22;18610;49.916;8.284;2022-09-23T08:37:14;16.30;99.70
32097;DHT22;18610;49.916;8.284;2022-09-23T08:39:40;16.40;98.10
32097;DHT22;18610;49.916;8.284;2022-09-23T08:42:16;16.30;98.30
32097;DHT22;18610;49.916;8.284;2022-09-23T08:44:47;16.40;97.90
32097;DHT22;18610;49.916;8.284;2022-09-23T08:47:19;16.40;97.50
32097;DHT22;18610;49.916;8.284;2022-09-23T08:49:54;16.40;97.20
32097;DHT22;18610;49.916;8.284;2022-09-23T08:52:28;16.40;97.50
32097;DHT22;18610;49.916;8.284;2022-09-23T08:54:57;16.70;97.30
32097;DHT22;18610;49.916;8.284;2022-09-23T08:57:37;16.80;96.70
32097;DHT22;18610;49.916;8.284;2022-09-23T09:00:11;17.10;96.20
32097;DHT22;18610;49.916;8.284;2022-09-23T09:02:39;17.30;95.40
32097;DHT22;18610;49.916;8.284;2022-09-23T09:05:07;17.50;94.70
32097;DHT22;18610;49.916;8.284;2022-09-23T09:07:38;17.60;93.10
32097;DHT22;18610;49.916;8.284;2022-09-23T09:10:14;17.80;93.30
32097;DHT22;18610;49.916;8.284;2022-09-23T09:12:46;18.10;93.00
32097;DHT22;18610;49.916;8.284;2022-09-23T09:15:15;18.40;91.90
32097;DHT22;18610;49.916;8.284;2022-09-23T09:17:49;18.70;91.20
32097;DHT22;18610;49.916;8.284;2022-09-23T09:20:21;18.90;89.40
32097;DHT22;18610;49.916;8.284;2022-09-23T09:22:53;18.70;88.70
32097;DHT22;18610;49.916;8.284;2022-09-23T09:25:35;18.60;89.50
32097;DHT22;18610;49.916;8.284;2022-09-23T09:28:13;18.60;89.50
32097;DHT22;18610;49.916;8.284;2022-09-23T09:30:42;18.40;88.20
32097;DHT22;18610;49.916;8.284;2022-09-23T09:33:13;18.30;88.30
32097;DHT22;18610;49.916;8.284;2022-09-23T09:35:53;18.20;86.40
32097;DHT22;18610;49.916;8.284;2022-09-23T09:38:22;18.20;88.60
32097;DHT22;18610;49.916;8.284;2022-09-23T09:40:49;18.40;86.20
32097;DHT22;18610;49.916;8.284;2022-09-23T09:43:18;18.50;84.50
32097;DHT22;18610;49.916;8.284;2022-09-23T09:45:55;18.60;83.80
32097;DHT22;18610;49.916;8.284;2022-09-23T09:48:32;18.60;85.00
32097;DHT22;18610;49.916;8.284;2022-09-23T09:51:17;18.70;85.50
32097;DHT22;18610;49.916;8.284;2022-09-23T09:53:44;18.90;85.00
32097;DHT22;18610;49.916;8.284;2022-09-23T09:56:13;19.00;86.50
32097;DHT22;18610;49.916;8.284;2022-09-23T09:58:44;18.90;85.80
32097;DHT22;18610;49.916;8.284;2022-09-23T10:01:19;19.10;87.00
32097;DHT22;18610;49.916;8.284;2022-09-23T10:03:48;19.50;86.00
32097;DHT22;18610;49.916;8.284;2022-09-23T10:06:19;19.50;85.10
32097;DHT22;18610;49.916;8.284;2022-09-23T10:09:01;19.40;84.10
32097;DHT22;18610;49.916;8.284;2022-09-23T10:11:30;19.50;84.80
32097;DHT22;18610;49.916;8.284;2022-09-23T10:14:04;19.60;84.10
32097;DHT22;18610;49.916;8.284;2022-09-23T10:16:32;19.90;81.70
32097;DHT22;18610;49.916;8.284;2022-09-23T10:19:01;19.60;79.20
32097;DHT22;18610;49.916;8.284;2022-09-23T10:21:32;19.60;81.50
32097;DHT22;18610;49.916;8.284;2022-09-23T10:24:01;20.00;81.80
32097;DHT22;18610;49.916;8.284;2022-09-23T10:26:31;20.30;80.50
32097;DHT22;18610;49.916;8.284;2022-09-23T10:29:02;20.50;80.00
32097;DHT22;18610;49.916;8.284;2022-09-23T10:31:31;20.50;78.60
32097;DHT22;18610;49.916;8.284;2022-09-23T10:33:59;20.70;78.40
32097;DHT22;18610;49.916;8.284;2022-09-23T10:36:27;21.00;79.10
32097;DHT22;18610;49.916;8.284;2022-09-23T10:38:57;21.10;76.80
32097;DHT22;18610;49.916;8.284;2022-09-23T10:41:54;21.20;74.70
32097;DHT22;18610;49.916;8.284;2022-09-23T10:44:55;21.40;74.80
32097;DHT22;18610;49.916;8.284;2022-09-23T10:47:48;22.00;72.80
32097;DHT22;18610;49.916;8.284;2022-09-23T10:50:27;22.30;72.20
32097;DHT22;18610;49.916;8.284;2022-09-23T10:53:05;22.50;72.40
32097;DHT22;18610;49.916;8.284;2022-09-23T10:55:59;22.70;69.60
32097;DHT22;18610;49.916;8.284;2022-09-23T10:58:56;22.40;71.00
32097;DHT22;18610;49.916;8.284;2022-09-23T11:01:37;22.70;69.70
32097;DHT22;18610;49.916;8.284;2022-09-23T11:04:15;23.00;66.90
32097;DHT22;18610;49.916;8.284;2022-09-23T11:06:59;23.30;65.60
32097;DHT22;18610;49.916;8.284;2022-09-23T11:09:32;23.10;63.80
32097;DHT22;18610;49.916;8.284;2022-09-23T11:12:13;23.10;63.40
32097;DHT22;18610;49.916;8.284;2022-09-23T11:15:08;23.00;64.60
32097;DHT22;18610;49.916;8.284;2022-09-23T11:18:05;23.30;65.30
32097;DHT22;18610;49.916;8.284;2022-09-23T11:20:45;23.30;63.20
32097;DHT22;18610;49.916;8.284;2022-09-23T11:23:35;23.40;62.10
32097;DHT22;18610;49.916;8.284;2022-09-23T11:26:16;23.10;63.90
32097;DHT22;18610;49.916;8.284;2022-09-23T11:29:03;23.10;62.60
32097;DHT22;18610;49.916;8.284;2022-09-23T11:31:36;23.20;64.20
32097;DHT22;18610;49.916;8.284;2022-09-23T11:34:23;23.40;62.90
32097;DHT22;18610;49.916;8.284;2022-09-23T11:36:58;23.20;63.20
32097;DHT22;18610;49.916;8.284;2022-09-23T11:39:30;23.20;63.60
32097;DHT22;18610;49.916;8.284;2022-09-23T11:41:59;23.00;64.40
32097;DHT22;18610;49.916;8.284;2022-09-23T11:44:30;22.80;63.10
32097;DHT22;18610;49.916;8.284;2022-09-23T11:47:02;22.70;63.50
32097;DHT22;18610;49.916;8.284;2022-09-23T11:49:34;22.80;64.80
32097;DHT22;18610;49.916;8.284;2022-09-23T11:52:06;22.80;64.70
32097;DHT22;18610;49.916;8.284;2022-09-23T11:54:39;22.80;63.80
32097;DHT22;18610;49.916;8.284;2022-09-23T11:57:11;22.80;64.70
32097;DHT22;18610;49.916;8.284;2022-09-23T11:59:42;22.70;65.30
32097;DHT22;18610;49.916;8.284;2022-09-23T12:02:17;22.70;64.90
32097;DHT22;18610;49.916;8.284;2022-09-23T12:04:54;22.60;64.00
32097;DHT22;18610;49.916;8.284;2022-09-23T12:07:26;22.90;65.20
32097;DHT22;18610;49.916;8.284;2022-09-23T12:09:57;22.90;65.00
32097;DHT22;18610;49.916;8.284;2022-09-23T12:12:33;22.70;64.20
32097;DHT22;18610;49.916;8.284;2022-09-23T12:15:05;23.00;64.60
32097;DHT22;18610;49.916;8.284;2022-09-23T12:18:05;23.00;62.20
32097;DHT22;18610;49.916;8.284;2022-09-23T12:21:04;22.70;62.60
32097;DHT22;18610;49.916;8.284;2022-09-23T12:23:48;22.90;63.00
32097;DHT22;18610;49.916;8.284;2022-09-23T12:26:19;23.10;62.40
32097;DHT22;18610;49.916;8.284;2022-09-23T12:28:49;23.30;60.30
32097;DHT22;18610;49.916;8.284;2022-09-23T12:31:18;23.40;61.20
32097;DHT22;18610;49.916;8.284;2022-09-23T12:33:49;23.80;61.90
32097;DHT22;18610;49.916;8.284;2022-09-23T12:36:24;23.90;61.20
32097;DHT22;18610;49.916;8.284;2022-09-23T12:38:53;24.00;60.00
32097;DHT22;18610;49.916;8.284;2022-09-23T12:41:25;23.90;60.10
32097;DHT22;18610;49.916;8.284;2022-09-23T12:43:54;23.90;61.10
32097;DHT22;18610;49.916;8.284;2022-09-23T12:46:23;23.80;59.70
32097;DHT22;18610;49.916;8.284;2022-09-23T12:49:03;23.60;59.20
32097;DHT22;18610;49.916;8.284;2022-09-23T12:51:33;23.70;60.70
32097;DHT22;18610;49.916;8.284;2022-09-23T12:54:22;23.90;60.50
32097;DHT22;18610;49.916;8.284;2022-09-23T12:56:58;24.00;59.20
32097;DHT22;18610;49.916;8.284;2022-09-23T12:59:26;23.90;58.40
32097;DHT22;18610;49.916;8.284;2022-09-23T13:01:54;23.80;57.90
32097;DHT22;18610;49.916;8.284;2022-09-23T13:07:31;23.40;58.30
32097;DHT22;18610;49.916;8.284;2022-09-23T13:10:05;23.30;59.10
32097;DHT22;18610;49.916;8.284;2022-09-23T13:12:37;23.30;60.40
32097;DHT22;18610;49.916;8.284;2022-09-23T13:15:15;23.10;59.90
32097;DHT22;18610;49.916;8.284;2022-09-23T13:17:42;22.90;60.40
32097;DHT22;18610;49.916;8.284;2022-09-23T13:20:34;22.80;62.10
32097;DHT22;18610;49.916;8.284;2022-09-23T13:23:20;22.70;63.40
32097;DHT22;18610;49.916;8.284;2022-09-23T13:25:48;22.40;64.30
32097;DHT22;18610;49.916;8.284;2022-09-23T13:28:29;22.20;65.00
32097;DHT22;18610;49.916;8.284;2022-09-23T13:30:57;22.00;64.80
32097;DHT22;18610;49.916;8.284;2022-09-23T13:33:31;22.10;65.40
32097;DHT22;18610;49.916;8.284;2022-09-23T13:36:00;22.10;65.30
32097;DHT22;18610;49.916;8.284;2022-09-23T13:38:30;22.00;65.90
32097;DHT22;18610;49.916;8.284;2022-09-23T13:41:01;22.10;65.00
32097;DHT22;18610;49.916;8.284;2022-09-23T13:43:31;22.40;65.40
32097;DHT22;18610;49.916;8.284;2022-09-23T13:46:00;23.20;65.50
32097;DHT22;18610;49.916;8.284;2022-09-23T13:48:30;23.60;61.10
32097;DHT22;18610;49.916;8.284;2022-09-23T13:50:58;24.00;60.60
32097;DHT22;18610;49.916;8.284;2022-09-23T13:53:36;24.50;59.80
32097;DHT22;18610;49.916;8.284;2022-09-23T13:56:05;24.50;58.10
32097;DHT22;18610;49.916;8.284;2022-09-23T13:58:34;24.50;58.20
32097;DHT22;18610;49.916;8.284;2022-09-23T14:01:01;24.50;57.80
32097;DHT22;18610;49.916;8.284;2022-09-23T14:03:31;24.30;58.80
32097;DHT22;18610;49.916;8.284;2022-09-23T14:06:00;23.90;57.10
32097;DHT22;18610;49.916;8.284;2022-09-23T14:08:28;23.50;59.00
32097;DHT22;18610;49.916;8.284;2022-09-23T14:10:57;23.30;59.90
32097;DHT22;18610;49.916;8.284;2022-09-23T14:13:27;23.30;59.90
32097;DHT22;18610;49.916;8.284;2022-09-23T14:15:56;23.20;59.00
32097;DHT22;18610;49.916;8.284;2022-09-23T14:18:32;23.40;59.20
32097;DHT22;18610;49.916;8.284;2022-09-23T14:21:00;23.50;59.20
32097;DHT22;18610;49.916;8.284;2022-09-23T14:23:27;23.70;59.40
32097;DHT22;18610;49.916;8.284;2022-09-23T14:25:56;24.00;59.20
32097;DHT22;18610;49.916;8.284;2022-09-23T14:28:25;24.10;59.40
32097;DHT22;18610;49.916;8.284;2022-09-23T14:30:54;24.10;59.00
32097;DHT22;18610;49.916;8.284;2022-09-23T14:33:25;24.10;59.40
32097;DHT22;18610;49.916;8.284;2022-09-23T14:35:55;23.90;59.80
32097;DHT22;18610;49.916;8.284;2022-09-23T14:38:25;23.90;58.60
32097;DHT22;18610;49.916;8.284;2022-09-23T14:41:23;24.00;59.10
32097;DHT22;18610;49.916;8.284;2022-09-23T14:43:54;23.80;59.50
32097;DHT22;18610;49.916;8.284;2022-09-23T14:46:22;23.40;60.10
32097;DHT22;18610;49.916;8.284;2022-09-23T14:48:55;22.90;60.90
32097;DHT22;18610;49.916;8.284;2022-09-23T14:51:33;22.60;63.00
32097;DHT22;18610;49.916;8.284;2022-09-23T14:54:22;22.50;64.90
32097;DHT22;18610;49.916;8.284;2022-09-23T14:56:52;22.30;65.30
32097;DHT22;18610;49.916;8.284;2022-09-23T14:59:25;22.00;65.60
32097;DHT22;18610;49.916;8.284;2022-09-23T15:01:52;22.10;66.80
32097;DHT22;18610;49.916;8.284;2022-09-23T15:04:28;22.40;65.90
32097;DHT22;18610;49.916;8.284;2022-09-23T15:06:58;23.00;64.00
32097;DHT22;18610;49.916;8.284;2022-09-23T15:09:29;23.70;64.70
32097;DHT22;18610;49.916;8.284;2022-09-23T15:11:59;23.70;62.50
32097;DHT22;18610;49.916;8.284;2022-09-23T15:14:29;23.50;61.90
32097;DHT22;18610;49.916;8.284;2022-09-23T15:16:57;23.30;63.60
32097;DHT22;18610;49.916;8.284;2022-09-23T15:19:25;22.90;63.20
32097;DHT22;18610;49.916;8.284;2022-09-23T15:21:53;22.70;62.50
32097;DHT22;18610;49.916;8.284;2022-09-23T15:24:39;22.20;63.10
32097;DHT22;18610;49.916;8.284;2022-09-23T15:27:29;21.90;65.20
32097;DHT22;18610;49.916;8.284;2022-09-23T15:30:06;21.60;66.90
32097;DHT22;18610;49.916;8.284;2022-09-23T15:32:38;21.40;67.90
32097;DHT22;18610;49.916;8.284;2022-09-23T15:35:05;21.10;69.30
32097;DHT22;18610;49.916;8.284;2022-09-23T15:37:32;20.90;71.80
32097;DHT22;18610;49.916;8.284;2022-09-23T15:40:00;20.60;71.70
32097;DHT22;18610;49.916;8.284;2022-09-23T15:42:29;20.40;73.00
32097;DHT22;18610;49.916;8.284;2022-09-23T15:44:56;20.10;73.60
32097;DHT22;18610;49.916;8.284;2022-09-23T15:47:25;19.90;75.10
32097;DHT22;18610;49.916;8.284;2022-09-23T15:49:51;19.80;77.10
32097;DHT22;18610;49.916;8.284;2022-09-23T15:52:19;19.70;77.20
32097;DHT22;18610;49.916;8.284;2022-09-23T15:54:47;19.60;77.90
32097;DHT22;18610;49.916;8.284;2022-09-23T15:57:14;19.60;79.20
32097;DHT22;18610;49.916;8.284;2022-09-23T15:59:42;19.60;79.30
32097;DHT22;18610;49.916;8.284;2022-09-23T16:02:15;19.60;80.20
32097;DHT22;18610;49.916;8.284;2022-09-23T16:04:45;19.60;80.70
32097;DHT22;18610;49.916;8.284;2022-09-23T16:07:14;19.50;81.00
32097;DHT22;18610;49.916;8.284;2022-09-23T16:09:41;19.50;82.20
32097;DHT22;18610;49.916;8.284;2022-09-23T16:12:09;19.50;82.20